Time;durP1;ratioP1;P1;durP2;ratioP2;P2;SDS_P1;SDS_P2;PMS_P1;PMS_P2;Temp;Humidity;BMP_temperature;BMP_pressure;BME280_temperature;BME280_humidity;BME280_pressure;Samples;Min_cycle;Max_cycle;Signal;HPM_P1;HPM_P2
2023/07/13 00:00:23;;;;;;;3.92;0.80;;;20.30;99.90;;;;;;5073873;28;20425;-39
2023/07/13 00:02:49;;;;;;;3.85;1.00;;;20.30;99.90;;;;;;5092834;28;20161;-39
2023/07/13 00:05:14;;;;;;;5.22;1.05;;;20.30;99.90;;;;;;5073905;28;20016;-39
2023/07/13 00:07:40;;;;;;;6.75;0.95;;;20.20;99.90;;;;;;5092051;28;20023;-42
2023/07/13 00:10:07;;;;;;;3.10;0.90;;;20.20;99.90;;;;;;5091938;28;20109;-39
2023/07/13 00:12:35;;;;;;;3.00;0.85;;;20.20;99.90;;;;;;5092100;28;20181;-40
2023/07/13 00:15:04;;;;;;;2.50;0.85;;;20.10;99.90;;;;;;5092062;28;20047;-39
2023/07/13 00:17:29;;;;;;;2.30;0.90;;;20.10;99.90;;;;;;5091765;28;20376;-40
2023/07/13 00:19:56;;;;;;;3.65;0.93;;;20.10;99.90;;;;;;5091658;28;20035;-39
2023/07/13 00:22:25;;;;;;;4.65;1.00;;;20.00;99.90;;;;;;5091964;28;20109;-40
2023/07/13 00:24:56;;;;;;;4.90;1.20;;;20.10;99.90;;;;;;5091839;28;20016;-39
2023/07/13 00:27:23;;;;;;;7.85;1.17;;;20.00;99.90;;;;;;5091804;28;20027;-40
2023/07/13 00:29:48;;;;;;;6.93;1.10;;;20.00;99.90;;;;;;5091634;28;20099;-39
2023/07/13 00:32:14;;;;;;;3.15;1.08;;;20.00;99.90;;;;;;5091667;28;20494;-39
2023/07/13 00:34:40;;;;;;;4.85;1.20;;;20.00;99.90;;;;;;5091997;28;20031;-39
2023/07/13 00:37:07;;;;;;;8.45;1.10;;;19.90;99.90;;;;;;5091537;28;20020;-40
2023/07/13 00:39:35;;;;;;;4.45;1.00;;;19.90;99.90;;;;;;5091442;28;20031;-39
2023/07/13 00:42:02;;;;;;;6.18;1.08;;;20.00;99.90;;;;;;5091603;28;20024;-40
2023/07/13 00:44:28;;;;;;;5.95;1.20;;;20.00;99.90;;;;;;5091446;28;20036;-40
2023/07/13 00:46:55;;;;;;;5.18;1.08;;;19.80;99.90;;;;;;5091507;28;20148;-42
2023/07/13 00:49:22;;;;;;;8.65;1.20;;;19.80;99.90;;;;;;5091199;28;20071;-40
2023/07/13 00:51:55;;;;;;;7.53;0.95;;;19.80;99.90;;;;;;5091448;28;20055;-41
2023/07/13 00:54:33;;;;;;;3.35;1.17;;;19.80;99.90;;;;;;5092033;28;20032;-39
2023/07/13 00:57:04;;;;;;;6.07;0.82;;;19.80;99.90;;;;;;5091414;28;20028;-39
2023/07/13 00:59:31;;;;;;;4.25;0.93;;;19.70;99.90;;;;;;5090981;28;20150;-40
2023/07/13 01:01:56;;;;;;;5.45;1.05;;;19.70;99.90;;;;;;5091336;28;20039;-39
2023/07/13 01:04:25;;;;;;;7.18;1.15;;;19.70;99.90;;;;;;5091256;28;20040;-40
2023/07/13 01:06:50;;;;;;;2.97;1.00;;;19.70;99.90;;;;;;5091253;28;20086;-40
2023/07/13 01:09:17;;;;;;;3.70;1.15;;;19.70;99.90;;;;;;5091075;28;20431;-39
2023/07/13 01:11:44;;;;;;;4.97;0.88;;;19.70;99.90;;;;;;5091118;28;20367;-39
2023/07/13 01:14:10;;;;;;;7.95;1.10;;;19.70;99.90;;;;;;5091200;28;20031;-39
2023/07/13 01:16:37;;;;;;;3.17;0.80;;;19.70;99.90;;;;;;5091231;28;20028;-39
2023/07/13 01:19:14;;;;;;;3.13;1.00;;;19.70;99.90;;;;;;5091601;28;20388;-37
2023/07/13 01:21:42;;;;;;;7.95;1.00;;;19.70;99.90;;;;;;5091460;28;20028;-37
2023/07/13 01:24:09;;;;;;;3.17;0.90;;;19.70;99.90;;;;;;5091503;28;20149;-41
2023/07/13 01:26:34;;;;;;;5.00;1.10;;;19.70;99.90;;;;;;5091149;28;20016;-37
2023/07/13 01:29:00;;;;;;;7.38;1.10;;;19.70;99.90;;;;;;5072761;28;20107;-39
2023/07/13 01:31:26;;;;;;;4.05;1.00;;;19.70;99.90;;;;;;5091127;28;20023;-41
2023/07/13 01:33:52;;;;;;;6.03;1.10;;;19.70;99.90;;;;;;5091140;28;20028;-37
2023/07/13 01:36:17;;;;;;;4.35;0.82;;;19.70;99.90;;;;;;5091089;28;20107;-37
2023/07/13 01:38:43;;;;;;;6.32;1.10;;;19.70;99.90;;;;;;5090919;28;20063;-41
2023/07/13 01:41:08;;;;;;;6.68;0.98;;;19.70;99.90;;;;;;5090871;28;20024;-38
2023/07/13 01:43:34;;;;;;;5.10;1.00;;;19.60;99.90;;;;;;5090925;28;20032;-40
2023/07/13 01:45:59;;;;;;;4.50;1.00;;;19.60;99.90;;;;;;5091077;28;20028;-37
2023/07/13 01:48:25;;;;;;;3.35;0.80;;;19.60;99.90;;;;;;5090827;28;20024;-39
2023/07/13 01:50:51;;;;;;;4.18;1.00;;;19.60;99.90;;;;;;5090738;28;20106;-37
2023/07/13 01:53:16;;;;;;;4.05;1.15;;;19.60;99.90;;;;;;5090852;28;20024;-39
2023/07/13 01:55:42;;;;;;;7.63;1.33;;;19.60;99.90;;;;;;5072700;28;20108;-37
2023/07/13 01:58:08;;;;;;;3.65;1.00;;;19.50;99.90;;;;;;5090843;28;20055;-37
2023/07/13 02:00:34;;;;;;;4.00;1.00;;;19.50;99.90;;;;;;5090837;28;20040;-37
2023/07/13 02:02:59;;;;;;;1.95;0.75;;;19.40;99.90;;;;;;5090754;28;20032;-39
2023/07/13 02:05:25;;;;;;;4.07;1.13;;;19.30;99.90;;;;;;5090786;28;20020;-39
2023/07/13 02:07:50;;;;;;;4.28;0.80;;;19.30;99.90;;;;;;5090695;28;20020;-37
2023/07/13 02:10:17;;;;;;;11.02;1.30;;;19.30;99.90;;;;;;5091364;28;20153;-37
2023/07/13 02:12:43;;;;;;;7.25;1.05;;;19.20;99.90;;;;;;5094445;28;20036;-37
2023/07/13 02:15:09;;;;;;;8.63;1.23;;;19.20;99.90;;;;;;5094340;28;20031;-37
2023/07/13 02:17:36;;;;;;;4.18;1.02;;;19.20;99.90;;;;;;5094089;28;20437;-39
2023/07/13 02:20:03;;;;;;;5.75;0.90;;;19.10;99.90;;;;;;5094312;28;20099;-38
2023/07/13 02:22:28;;;;;;;3.47;1.08;;;19.00;99.90;;;;;;5094161;28;20031;-39
2023/07/13 02:24:54;;;;;;;7.65;1.00;;;19.00;99.90;;;;;;5094611;28;20020;-38
2023/07/13 02:27:20;;;;;;;3.72;0.80;;;18.90;99.90;;;;;;5094091;28;20020;-39
2023/07/13 02:29:46;;;;;;;2.08;0.90;;;18.90;99.90;;;;;;5093956;28;20095;-37
2023/07/13 02:32:11;;;;;;;5.18;1.05;;;18.80;99.90;;;;;;5094098;28;20028;-37
2023/07/13 02:34:38;;;;;;;4.28;0.90;;;18.70;99.90;;;;;;5093910;28;20399;-38
2023/07/13 02:37:04;;;;;;;2.67;0.85;;;18.70;99.90;;;;;;5093886;28;20028;-38
2023/07/13 02:39:32;;;;;;;4.55;1.00;;;18.60;99.90;;;;;;5075474;28;20501;-37
2023/07/13 02:41:59;;;;;;;3.42;0.98;;;18.60;99.90;;;;;;5093875;28;20046;-37
2023/07/13 02:44:24;;;;;;;6.75;0.98;;;18.70;99.90;;;;;;5093680;28;20020;-39
2023/07/13 02:46:50;;;;;;;7.38;1.08;;;18.60;99.90;;;;;;5093796;28;20031;-36
2023/07/13 02:49:15;;;;;;;8.32;1.30;;;18.60;99.90;;;;;;5093395;28;20114;-37
2023/07/13 02:51:41;;;;;;;3.38;0.68;;;18.60;99.90;;;;;;5075457;28;20111;-38
2023/07/13 02:54:08;;;;;;;2.70;0.93;;;18.60;99.90;;;;;;5093628;28;20062;-37
2023/07/13 02:56:34;;;;;;;5.68;1.05;;;18.60;99.90;;;;;;5093599;28;20020;-38
2023/07/13 02:58:59;;;;;;;3.45;1.10;;;18.50;99.90;;;;;;5093307;28;20364;-38
2023/07/13 03:01:25;;;;;;;5.97;1.00;;;18.50;99.90;;;;;;5093557;28;20127;-36
2023/07/13 03:03:52;;;;;;;3.47;0.90;;;18.50;99.90;;;;;;5093227;28;20059;-37
2023/07/13 03:06:18;;;;;;;3.30;0.82;;;18.50;99.90;;;;;;5093443;28;20111;-38
2023/07/13 03:08:44;;;;;;;5.38;1.13;;;18.40;99.90;;;;;;5093124;28;20027;-39
2023/07/13 03:11:13;;;;;;;5.90;0.93;;;18.30;99.90;;;;;;5093191;28;20054;-39
2023/07/13 03:13:40;;;;;;;6.28;1.02;;;18.20;99.90;;;;;;5093286;28;20150;-37
2023/07/13 03:16:06;;;;;;;2.08;0.80;;;18.10;99.90;;;;;;5093198;28;20033;-37
2023/07/13 03:18:32;;;;;;;5.53;1.05;;;18.00;99.90;;;;;;5093071;28;20047;-39
2023/07/13 03:20:58;;;;;;;2.97;0.90;;;18.00;99.90;;;;;;5092971;28;20111;-43
2023/07/13 03:23:25;;;;;;;4.28;1.00;;;18.00;99.90;;;;;;5093041;28;20099;-37
2023/07/13 03:25:50;;;;;;;4.50;1.17;;;18.00;99.90;;;;;;5092995;28;20119;-37
2023/07/13 03:28:16;;;;;;;3.10;1.00;;;17.90;99.90;;;;;;5092876;28;20502;-37
2023/07/13 03:30:42;;;;;;;5.63;0.88;;;17.90;99.90;;;;;;5092852;28;20027;-37
2023/07/13 03:33:08;;;;;;;3.80;0.88;;;17.90;99.90;;;;;;5092877;28;20489;-37
2023/07/13 03:35:34;;;;;;;4.82;0.70;;;18.00;99.90;;;;;;5092850;28;20486;-37
2023/07/13 03:38:00;;;;;;;3.20;1.05;;;18.00;99.90;;;;;;5092856;28;20047;-38
2023/07/13 03:40:27;;;;;;;5.30;1.10;;;18.00;99.90;;;;;;5092525;28;20467;-38
2023/07/13 03:42:52;;;;;;;4.30;1.05;;;17.90;99.90;;;;;;5092601;28;20032;-37
2023/07/13 03:45:18;;;;;;;8.35;1.30;;;17.90;99.90;;;;;;5092643;28;20554;-38
2023/07/13 03:47:44;;;;;;;4.25;1.00;;;17.90;99.90;;;;;;5092484;28;20024;-37
2023/07/13 03:50:10;;;;;;;3.42;1.10;;;17.80;99.90;;;;;;5092259;28;20537;-37
2023/07/13 03:52:36;;;;;;;5.22;1.17;;;17.80;99.90;;;;;;5074534;28;20024;-37
2023/07/13 03:55:02;;;;;;;4.50;1.00;;;17.80;99.90;;;;;;5092480;28;20423;-38
2023/07/13 03:57:28;;;;;;;3.60;0.98;;;17.80;99.90;;;;;;5092316;28;20479;-39
2023/07/13 03:59:53;;;;;;;3.72;1.17;;;17.80;99.90;;;;;;5092227;28;20026;-37
2023/07/13 04:02:20;;;;;;;8.43;1.10;;;17.90;99.90;;;;;;5092331;28;20031;-37
2023/07/13 04:04:46;;;;;;;10.45;1.10;;;17.90;99.90;;;;;;5092160;28;20394;-39
2023/07/13 04:07:12;;;;;;;3.72;1.00;;;17.80;99.90;;;;;;5092163;28;20025;-37
2023/07/13 04:09:38;;;;;;;7.80;1.35;;;17.80;99.90;;;;;;5092069;28;20421;-39
2023/07/13 04:12:04;;;;;;;5.07;1.38;;;17.70;99.90;;;;;;5092173;28;20389;-37
2023/07/13 04:14:30;;;;;;;4.47;1.05;;;17.60;99.90;;;;;;5092118;28;20035;-37
2023/07/13 04:16:55;;;;;;;6.63;1.30;;;17.60;99.90;;;;;;5092087;28;20024;-40
2023/07/13 04:19:21;;;;;;;6.40;1.48;;;17.60;99.90;;;;;;5091988;28;20123;-38
2023/07/13 04:21:47;;;;;;;5.05;1.00;;;17.70;99.90;;;;;;5092001;28;20024;-38
2023/07/13 04:24:13;;;;;;;3.38;1.40;;;17.70;99.90;;;;;;5091922;28;20054;-38
2023/07/13 04:26:39;;;;;;;5.38;1.08;;;17.60;99.90;;;;;;5091972;28;20024;-36
2023/07/13 04:29:05;;;;;;;5.68;1.35;;;17.50;99.90;;;;;;5091961;28;20036;-38
2023/07/13 04:31:32;;;;;;;7.25;1.15;;;17.50;99.90;;;;;;5091854;28;20028;-39
2023/07/13 04:33:57;;;;;;;8.68;1.35;;;17.50;99.90;;;;;;5091349;28;20543;-37
2023/07/13 04:36:25;;;;;;;6.20;1.30;;;17.50;99.90;;;;;;5091746;28;20114;-37
2023/07/13 04:38:51;;;;;;;5.32;0.90;;;17.50;99.90;;;;;;5091524;28;20432;-36
2023/07/13 04:41:16;;;;;;;5.50;0.90;;;17.50;99.90;;;;;;5091579;28;20024;-38
2023/07/13 04:43:43;;;;;;;7.47;1.35;;;17.50;99.90;;;;;;5091918;28;20036;-37
2023/07/13 04:46:12;;;;;;;5.95;1.20;;;17.40;99.90;;;;;;5091867;28;20016;-38
2023/07/13 04:48:38;;;;;;;4.43;1.20;;;17.50;99.90;;;;;;5091405;28;20031;-38
2023/07/13 04:51:04;;;;;;;4.57;1.17;;;17.50;99.90;;;;;;5091678;28;20413;-37
2023/07/13 04:53:30;;;;;;;3.78;1.20;;;17.50;99.90;;;;;;5091456;28;20024;-37
2023/07/13 04:55:56;;;;;;;5.28;0.98;;;17.50;99.90;;;;;;5091495;28;20023;-39
2023/07/13 04:58:22;;;;;;;5.90;1.17;;;17.50;99.90;;;;;;5091368;28;20483;-38
2023/07/13 05:00:48;;;;;;;9.35;1.63;;;17.50;99.90;;;;;;5091450;28;20422;-38
2023/07/13 05:03:14;;;;;;;6.47;1.30;;;17.50;99.90;;;;;;5091191;28;20032;-37
2023/07/13 05:05:40;;;;;;;3.38;1.10;;;17.50;99.90;;;;;;5091360;28;20020;-37
2023/07/13 05:08:07;;;;;;;6.28;1.10;;;17.50;99.90;;;;;;5091274;28;20100;-37
2023/07/13 05:10:33;;;;;;;3.97;1.40;;;17.50;99.90;;;;;;5091132;28;20020;-38
2023/07/13 05:12:58;;;;;;;3.30;1.13;;;17.50;99.90;;;;;;5091349;28;20093;-38
2023/07/13 05:15:25;;;;;;;6.50;1.17;;;17.50;99.90;;;;;;5091248;28;20028;-37
2023/07/13 05:17:51;;;;;;;9.75;1.40;;;17.50;99.90;;;;;;5092516;28;20583;-37
2023/07/13 05:20:18;;;;;;;5.00;1.10;;;17.50;99.90;;;;;;5091056;28;20032;-37
2023/07/13 05:22:46;;;;;;;3.95;1.30;;;17.60;99.90;;;;;;5091058;28;20051;-37
2023/07/13 05:25:13;;;;;;;2.75;1.13;;;17.60;99.90;;;;;;5091482;28;20028;-37
2023/07/13 05:27:39;;;;;;;3.92;1.30;;;17.60;99.90;;;;;;5091440;28;20360;-37
2023/07/13 05:30:05;;;;;;;4.82;1.30;;;17.60;99.90;;;;;;5090899;28;20023;-37
2023/07/13 05:32:30;;;;;;;7.53;1.67;;;17.60;99.90;;;;;;5091362;28;20032;-37
2023/07/13 05:34:56;;;;;;;8.38;1.63;;;17.60;99.90;;;;;;5090997;28;20020;-38
2023/07/13 05:37:22;;;;;;;3.83;1.20;;;17.70;99.90;;;;;;5072868;28;20475;-39
2023/07/13 05:39:47;;;;;;;3.80;1.17;;;17.60;99.90;;;;;;5090885;28;20391;-37
2023/07/13 05:42:13;;;;;;;4.80;1.10;;;17.60;99.90;;;;;;5091037;28;20039;-37
2023/07/13 05:44:39;;;;;;;3.50;1.08;;;17.60;99.90;;;;;;5090758;28;20528;-39
2023/07/13 05:47:05;;;;;;;3.95;1.27;;;17.70;99.90;;;;;;5094719;28;20056;-38
2023/07/13 05:49:31;;;;;;;8.25;1.80;;;17.70;99.90;;;;;;5094713;28;20425;-39
2023/07/13 05:51:57;;;;;;;3.20;1.20;;;17.70;99.90;;;;;;5094878;28;20085;-40
2023/07/13 05:54:22;;;;;;;5.90;1.33;;;17.70;99.90;;;;;;5095009;28;20040;-40
2023/07/13 05:56:48;;;;;;;4.00;1.20;;;17.80;99.90;;;;;;5094765;28;20153;-37
2023/07/13 05:59:14;;;;;;;5.40;1.10;;;17.80;99.90;;;;;;5094415;28;20030;-37
2023/07/13 06:01:40;;;;;;;5.10;1.08;;;17.80;99.90;;;;;;5094652;28;20093;-38
2023/07/13 06:04:06;;;;;;;6.55;1.60;;;17.90;99.90;;;;;;5094879;28;20024;-37
2023/07/13 06:06:32;;;;;;;4.15;1.00;;;17.90;99.90;;;;;;5094605;28;20028;-38
2023/07/13 06:08:57;;;;;;;5.18;1.23;;;18.00;99.90;;;;;;5094287;28;20028;-37
2023/07/13 06:11:25;;;;;;;4.75;1.15;;;18.00;99.90;;;;;;5094564;28;20069;-39
2023/07/13 06:13:51;;;;;;;3.22;1.08;;;18.00;99.90;;;;;;5094315;28;20422;-39
2023/07/13 06:16:17;;;;;;;3.38;1.55;;;18.10;99.90;;;;;;5094509;28;20314;-38
2023/07/13 06:18:43;;;;;;;6.80;1.50;;;18.10;99.90;;;;;;5094086;28;20379;-38
2023/07/13 06:21:16;;;;;;;4.00;1.20;;;18.20;99.90;;;;;;5094168;28;20020;-37
2023/07/13 06:23:42;;;;;;;3.58;1.17;;;18.20;99.90;;;;;;5094236;28;20028;-39
2023/07/13 06:26:10;;;;;;;4.13;1.30;;;18.30;99.90;;;;;;5094156;28;20024;-38
2023/07/13 06:28:36;;;;;;;4.18;1.20;;;18.40;99.90;;;;;;5093938;28;20039;-37
2023/07/13 06:31:04;;;;;;;6.95;1.40;;;18.40;99.90;;;;;;5093975;28;20036;-39
2023/07/13 06:33:30;;;;;;;5.45;1.65;;;18.40;99.90;;;;;;5094267;28;20028;-38
2023/07/13 06:35:56;;;;;;;4.13;1.00;;;18.50;99.90;;;;;;5094023;28;20111;-37
2023/07/13 06:38:21;;;;;;;8.73;1.20;;;18.50;99.90;;;;;;5093918;28;20036;-37
2023/07/13 06:40:47;;;;;;;9.63;1.58;;;18.60;99.90;;;;;;5093819;28;20390;-39
2023/07/13 06:43:13;;;;;;;5.93;1.38;;;18.60;99.90;;;;;;5093712;28;20028;-38
2023/07/13 06:45:47;;;;;;;4.75;1.15;;;18.60;99.90;;;;;;5093829;28;20471;-37
2023/07/13 06:48:13;;;;;;;8.85;1.63;;;18.60;99.90;;;;;;5093792;28;20532;-37
2023/07/13 06:50:40;;;;;;;4.97;1.05;;;18.70;99.90;;;;;;5093591;28;20099;-38
2023/07/13 06:53:06;;;;;;;1.77;0.85;;;18.70;99.90;;;;;;5093684;28;20432;-38
2023/07/13 06:55:31;;;;;;;5.65;1.48;;;18.80;99.90;;;;;;5093458;28;20056;-39
2023/07/13 06:57:57;;;;;;;3.88;1.00;;;18.80;99.90;;;;;;5093185;28;20102;-39
2023/07/13 07:00:23;;;;;;;5.00;1.13;;;18.90;99.90;;;;;;5093409;28;20028;-40
2023/07/13 07:02:49;;;;;;;6.32;1.80;;;18.90;99.90;;;;;;5066969;28;20150;-41
2023/07/13 07:05:15;;;;;;;5.10;1.50;;;18.90;99.90;;;;;;5092905;28;20081;-40
2023/07/13 07:07:40;;;;;;;3.95;1.20;;;19.00;99.90;;;;;;5093345;28;20118;-40
2023/07/13 07:10:07;;;;;;;3.40;1.10;;;19.10;99.90;;;;;;5093059;28;20016;-41
2023/07/13 07:12:32;;;;;;;7.88;1.40;;;19.10;99.90;;;;;;5093257;28;20429;-39
2023/07/13 07:14:58;;;;;;;4.97;1.08;;;19.10;99.90;;;;;;5093264;28;20024;-39
2023/07/13 07:17:25;;;;;;;3.85;1.25;;;19.20;99.90;;;;;;5093572;28;20039;-40
2023/07/13 07:19:50;;;;;;;6.35;1.20;;;19.30;99.90;;;;;;5092984;28;20013;-39
2023/07/13 07:22:16;;;;;;;5.13;1.13;;;19.30;99.90;;;;;;5093134;28;20433;-40
2023/07/13 07:24:42;;;;;;;2.92;1.00;;;19.30;99.90;;;;;;5074993;28;20040;-40
2023/07/13 07:27:07;;;;;;;3.85;1.10;;;19.40;99.90;;;;;;5093042;28;20035;-39
2023/07/13 07:29:33;;;;;;;3.97;1.20;;;19.40;99.90;;;;;;5092936;28;20421;-38
2023/07/13 07:32:00;;;;;;;2.70;0.90;;;19.40;99.90;;;;;;5092902;28;20016;-40
2023/07/13 07:34:25;;;;;;;4.07;1.05;;;19.50;99.90;;;;;;5092862;28;20020;-39
2023/07/13 07:36:51;;;;;;;3.10;1.00;;;19.50;99.90;;;;;;5093270;28;20031;-40
2023/07/13 07:39:17;;;;;;;3.30;1.20;;;19.50;99.90;;;;;;5092406;28;20035;-40
2023/07/13 07:41:43;;;;;;;5.75;1.15;;;19.60;99.90;;;;;;5092673;28;20107;-39
2023/07/13 07:44:09;;;;;;;2.38;1.00;;;19.60;99.90;;;;;;5092610;28;20034;-39
2023/07/13 07:46:35;;;;;;;2.15;1.00;;;19.60;99.90;;;;;;5092847;28;20020;-38
2023/07/13 07:49:01;;;;;;;4.07;0.98;;;19.70;99.90;;;;;;5092930;28;20097;-40
2023/07/13 07:51:26;;;;;;;1.50;0.93;;;19.70;99.90;;;;;;5074359;28;20032;-40
2023/07/13 07:53:52;;;;;;;3.47;1.00;;;19.70;99.90;;;;;;5092629;28;20032;-39
2023/07/13 07:56:18;;;;;;;2.75;1.10;;;19.70;99.90;;;;;;5092413;28;20024;-41
2023/07/13 07:58:44;;;;;;;3.58;1.08;;;19.80;99.90;;;;;;5092260;28;20511;-42
2023/07/13 08:01:10;;;;;;;4.07;0.90;;;19.80;99.90;;;;;;5092287;28;20070;-41
2023/07/13 08:03:35;;;;;;;2.28;1.02;;;19.80;99.90;;;;;;5092331;28;20459;-40
2023/07/13 08:06:01;;;;;;;2.67;1.20;;;19.80;99.90;;;;;;5093670;28;20058;-40
2023/07/13 08:08:27;;;;;;;1.77;0.80;;;19.90;99.90;;;;;;5092203;28;20119;-40
2023/07/13 08:10:53;;;;;;;1.67;0.80;;;19.90;99.90;;;;;;5091940;28;20024;-39
2023/07/13 08:13:19;;;;;;;2.85;1.08;;;19.90;99.90;;;;;;5092248;28;20024;-41
2023/07/13 08:15:46;;;;;;;2.85;1.00;;;19.90;99.90;;;;;;5092391;28;20024;-40
2023/07/13 08:18:11;;;;;;;0.93;0.60;;;20.00;99.90;;;;;;5091846;28;20106;-37
2023/07/13 08:20:40;;;;;;;1.70;0.80;;;20.00;99.90;;;;;;5068604;28;20053;-40
2023/07/13 08:23:09;;;;;;;2.67;0.85;;;20.00;99.90;;;;;;5051921;28;20041;-39
2023/07/13 08:25:34;;;;;;;2.38;0.88;;;20.00;99.90;;;;;;5052431;28;20013;-40
2023/07/13 08:28:00;;;;;;;2.33;0.70;;;20.00;99.90;;;;;;5052017;28;20081;-42
2023/07/13 08:30:26;;;;;;;2.38;0.82;;;20.10;99.90;;;;;;5051808;28;20440;-42
2023/07/13 08:32:53;;;;;;;1.63;0.77;;;20.10;99.90;;;;;;5051654;28;20074;-40
2023/07/13 08:35:19;;;;;;;2.03;0.90;;;20.10;99.90;;;;;;5051594;28;20021;-40
2023/07/13 08:37:44;;;;;;;1.25;0.70;;;20.10;99.90;;;;;;5051939;28;20479;-41
2023/07/13 08:40:11;;;;;;;2.47;0.93;;;20.10;99.90;;;;;;5051769;28;20017;-40
2023/07/13 08:42:58;;;;;;;1.05;0.65;;;20.20;99.90;;;;;;5033901;28;20029;-42
2023/07/13 08:45:28;;;;;;;2.50;0.80;;;20.10;99.90;;;;;;5051726;28;20518;-40
2023/07/13 08:47:56;;;;;;;1.30;0.73;;;20.20;99.90;;;;;;5051241;28;20025;-41
2023/07/13 08:50:27;;;;;;;2.10;0.80;;;20.20;99.90;;;;;;5051072;28;20025;-41
2023/07/13 08:52:55;;;;;;;1.45;0.60;;;20.20;99.90;;;;;;5033609;28;20396;-42
2023/07/13 08:55:24;;;;;;;2.08;0.80;;;20.20;99.90;;;;;;5051583;28;20063;-37
2023/07/13 08:58:01;;;;;;;1.42;0.70;;;20.30;99.90;;;;;;5051470;28;20032;-37
2023/07/13 09:00:40;;;;;;;1.27;0.70;;;20.30;99.90;;;;;;5050927;28;20083;-40
2023/07/13 09:03:20;;;;;;;2.53;0.80;;;20.30;99.90;;;;;;5051195;28;20029;-42
2023/07/13 09:05:54;;;;;;;2.25;0.75;;;20.30;99.90;;;;;;5051587;28;20017;-38
2023/07/13 09:08:39;;;;;;;1.00;0.60;;;20.30;99.90;;;;;;5051092;28;20484;-40
2023/07/13 09:11:26;;;;;;;1.00;0.60;;;20.30;99.90;;;;;;5050977;28;20159;-42
2023/07/13 09:14:22;;;;;;;3.53;0.85;;;20.30;99.90;;;;;;5051550;28;20036;-39
2023/07/13 09:16:49;;;;;;;3.85;0.70;;;20.40;99.90;;;;;;5051114;28;20028;-37
2023/07/13 09:19:24;;;;;;;2.10;0.90;;;20.40;99.90;;;;;;5051440;28;20048;-41
2023/07/13 09:21:52;;;;;;;1.80;0.70;;;20.40;99.90;;;;;;5055400;28;20033;-40
2023/07/13 09:24:45;;;;;;;1.95;0.80;;;20.40;99.90;;;;;;5055008;28;20587;-38
2023/07/13 09:27:20;;;;;;;1.55;0.90;;;20.50;99.90;;;;;;5055081;28;20064;-40
2023/07/13 09:29:54;;;;;;;2.20;0.70;;;20.50;99.90;;;;;;5055160;28;20045;-37
2023/07/13 09:32:24;;;;;;;2.00;0.88;;;20.50;99.90;;;;;;5055256;28;20025;-42
2023/07/13 09:34:52;;;;;;;2.67;0.77;;;20.50;99.90;;;;;;5055220;28;20024;-40
2023/07/13 09:37:20;;;;;;;2.75;0.90;;;20.50;99.90;;;;;;5054866;28;20056;-40
2023/07/13 09:39:47;;;;;;;3.25;0.95;;;20.50;99.90;;;;;;5054939;28;20029;-40
2023/07/13 09:42:22;;;;;;;3.47;0.80;;;20.50;99.90;;;;;;5054771;28;20029;-43
2023/07/13 09:44:47;;;;;;;;;;;20.50;99.90;;;;;;5055241;28;20017;-40
2023/07/13 09:47:17;;;;;;;2.17;0.77;;;20.60;99.90;;;;;;5054638;28;19916;-40
2023/07/13 09:49:44;;;;;;;4.13;0.80;;;20.60;99.90;;;;;;5054500;28;20068;-40
2023/07/13 09:52:15;;;;;;;2.33;0.70;;;20.60;99.90;;;;;;5054715;28;20055;-38
2023/07/13 09:54:48;;;;;;;1.20;0.73;;;20.60;99.90;;;;;;5054604;28;20029;-39
2023/07/13 09:57:22;;;;;;;2.00;0.80;;;20.60;99.90;;;;;;5054582;28;20559;-40
2023/07/13 09:59:51;;;;;;;2.78;0.70;;;20.60;99.90;;;;;;5054287;28;20551;-39
2023/07/13 10:02:29;;;;;;;2.47;0.88;;;20.60;99.90;;;;;;5054569;28;20029;-39
2023/07/13 10:05:03;;;;;;;1.67;0.70;;;20.60;99.90;;;;;;5054424;28;20021;-39
2023/07/13 10:07:29;;;;;;;;;;;20.70;99.90;;;;;;5054706;28;20028;-37
2023/07/13 10:10:00;;;;;;;1.95;0.95;;;20.70;99.90;;;;;;5054185;28;20170;-39
2023/07/13 10:12:27;;;;;;;2.00;0.75;;;20.70;99.90;;;;;;5054503;28;20028;-40
2023/07/13 10:15:00;;;;;;;5.13;1.00;;;20.70;99.90;;;;;;5054289;28;20033;-39
2023/07/13 10:17:33;;;;;;;1.27;0.60;;;20.70;99.90;;;;;;5054029;28;20035;-40
2023/07/13 10:20:04;;;;;;;1.33;0.60;;;20.70;99.90;;;;;;5054245;28;20436;-38
2023/07/13 10:23:01;;;;;;;1.83;0.60;;;20.70;99.90;;;;;;5054269;28;20487;-43
2023/07/13 10:25:31;;;;;;;1.73;0.80;;;20.80;99.90;;;;;;5054039;28;20529;-41
2023/07/13 10:28:13;;;;;;;2.03;0.70;;;20.80;99.90;;;;;;5053843;28;20096;-39
2023/07/13 10:30:42;;;;;;;2.20;0.70;;;20.90;99.90;;;;;;5053092;28;20025;-39
2023/07/13 10:33:13;;;;;;;1.58;0.70;;;21.00;99.90;;;;;;5053830;28;20028;-39
2023/07/13 10:35:42;;;;;;;1.50;0.80;;;20.80;99.90;;;;;;5053872;28;20040;-39
2023/07/13 10:38:16;;;;;;;1.55;0.80;;;;;;;;;;5053721;28;20028;-42
2023/07/13 10:41:01;;;;;;;2.10;0.80;;;20.90;99.90;;;;;;5053572;28;20023;-39
2023/07/13 10:43:33;;;;;;;2.92;0.70;;;20.90;99.90;;;;;;5053561;28;20083;-40
2023/07/13 10:46:01;;;;;;;2.83;0.77;;;20.90;99.90;;;;;;5053630;28;20021;-39
2023/07/13 10:48:29;;;;;;;3.05;0.90;;;20.90;99.90;;;;;;5053515;28;20438;-40
2023/07/13 10:50:58;;;;;;;2.67;0.63;;;20.90;99.90;;;;;;5053219;28;20503;-40
2023/07/13 10:53:36;;;;;;;0.85;0.47;;;20.90;99.90;;;;;;5053590;28;20044;-40
2023/07/13 10:56:21;;;;;;;2.38;0.65;;;20.90;99.90;;;;;;5053368;28;20084;-40
2023/07/13 10:59:00;;;;;;;1.70;0.68;;;21.00;99.90;;;;;;5053635;28;20048;-43
2023/07/13 11:01:40;;;;;;;1.80;0.80;;;21.00;99.90;;;;;;5053192;28;20017;-40
2023/07/13 11:04:12;;;;;;;1.00;0.52;;;21.00;99.90;;;;;;5053207;28;20079;-40
2023/07/13 11:06:41;;;;;;;1.15;0.60;;;21.00;99.90;;;;;;5053430;28;20025;-37
2023/07/13 11:09:54;;;;;;;1.58;0.70;;;21.00;99.90;;;;;;5052823;28;20059;-40
2023/07/13 11:12:19;;;;;;;1.80;0.73;;;21.00;99.90;;;;;;5008792;28;20095;-42
2023/07/13 11:14:54;;;;;;;2.38;0.60;;;21.00;99.90;;;;;;5053174;28;20032;-40
2023/07/13 11:17:59;;;;;;;1.70;0.75;;;21.10;99.90;;;;;;5053003;28;20021;-41
2023/07/13 11:20:35;;;;;;;1.20;0.70;;;21.10;99.90;;;;;;5052809;28;20036;-38
2023/07/13 11:23:20;;;;;;;1.58;0.70;;;21.10;99.90;;;;;;5052750;28;20515;-41
2023/07/13 11:25:47;;;;;;;1.05;0.55;;;21.10;99.90;;;;;;5052864;28;20024;-41
2023/07/13 11:28:12;;;;;;;1.30;0.50;;;21.10;99.90;;;;;;5052735;28;20013;-40
2023/07/13 11:30:47;;;;;;;2.35;0.57;;;21.10;99.90;;;;;;5052677;28;20456;-40
2023/07/13 11:33:38;;;;;;;1.58;0.80;;;21.10;99.90;;;;;;5052746;28;20029;-40
2023/07/13 11:36:04;;;;;;;1.85;0.60;;;21.10;99.90;;;;;;5052645;28;20033;-39
2023/07/13 11:38:37;;;;;;;2.00;0.63;;;21.10;99.90;;;;;;5052508;28;20025;-41
2023/07/13 11:41:15;;;;;;;1.17;0.77;;;21.20;99.90;;;;;;5052821;28;20088;-41
2023/07/13 11:43:42;;;;;;;1.00;0.50;;;21.20;99.90;;;;;;5051360;28;20529;-41
2023/07/13 11:46:16;;;;;;;2.45;0.70;;;21.20;99.90;;;;;;5052447;28;20399;-40
2023/07/13 11:48:44;;;;;;;0.75;0.60;;;21.30;99.90;;;;;;5052379;28;20079;-40
2023/07/13 11:51:20;;;;;;;0.80;0.40;;;21.20;99.90;;;;;;5052266;28;20025;-38
2023/07/13 11:53:49;;;;;;;1.85;0.68;;;21.20;99.90;;;;;;5052341;28;20025;-39
2023/07/13 11:56:14;;;;;;;3.28;0.63;;;21.20;99.90;;;;;;5052300;28;20037;-39
2023/07/13 11:58:41;;;;;;;1.13;0.57;;;21.20;99.90;;;;;;5052218;28;20547;-42
2023/07/13 12:01:18;;;;;;;1.23;0.80;;;21.20;99.90;;;;;;5052134;28;20126;-40
2023/07/13 12:03:46;;;;;;;3.78;0.50;;;21.20;99.90;;;;;;5052168;28;20031;-39
2023/07/13 12:06:42;;;;;;;0.98;0.50;;;21.20;99.90;;;;;;5052051;28;20029;-42
2023/07/13 12:09:20;;;;;;;3.00;0.85;;;21.30;99.90;;;;;;5035755;28;20040;-39
2023/07/13 12:11:45;;;;;;;1.73;0.68;;;21.30;99.90;;;;;;5052055;28;20021;-40
2023/07/13 12:14:18;;;;;;;2.55;0.65;;;21.30;99.90;;;;;;5051951;28;20028;-39
2023/07/13 12:16:46;;;;;;;2.13;0.88;;;21.30;99.90;;;;;;5051947;28;20024;-40
2023/07/13 12:19:22;;;;;;;1.80;0.55;;;21.30;99.90;;;;;;5051607;28;20033;-38
2023/07/13 12:21:49;;;;;;;0.98;0.60;;;21.30;99.90;;;;;;5051861;28;20151;-40
2023/07/13 12:24:17;;;;;;;0.93;0.50;;;21.30;99.90;;;;;;5033828;28;20029;-40
2023/07/13 12:26:44;;;;;;;1.23;0.70;;;21.30;99.90;;;;;;5051752;28;20484;-41
2023/07/13 12:29:15;;;;;;;1.40;0.60;;;21.30;99.90;;;;;;5051390;28;20029;-40
2023/07/13 12:31:47;;;;;;;2.88;0.82;;;21.30;99.90;;;;;;5051727;28;20032;-40
2023/07/13 12:34:15;;;;;;;5.18;1.10;;;21.40;99.40;;;;;;5051652;28;20028;-40
2023/07/13 12:37:02;;;;;;;5.38;1.38;;;21.60;95.20;;;;;;5051546;28;20025;-40
2023/07/13 12:39:57;;;;;;;5.80;1.20;;;21.80;96.60;;;;;;5051034;28;20031;-40
2023/07/13 12:42:27;;;;;;;3.47;0.98;;;21.70;96.50;;;;;;5034330;28;20116;-37
2023/07/13 12:45:04;;;;;;;3.22;1.38;;;21.70;95.70;;;;;;5051296;28;20033;-39
2023/07/13 12:47:30;;;;;;;4.30;1.25;;;21.80;95.20;;;;;;5051833;28;20025;-39
2023/07/13 12:49:59;;;;;;;3.17;0.90;;;21.80;95.00;;;;;;5051012;28;20395;-39
2023/07/13 12:52:30;;;;;;;8.27;1.30;;;21.80;94.50;;;;;;5051287;28;20137;-40
2023/07/13 12:54:59;;;;;;;2.58;1.27;;;21.90;93.50;;;;;;5050976;28;20025;-40